sensor_id;sensor_type;location;lat;lon;timestamp;P1;durP1;ratioP1;P2;durP2;ratioP2
75732;SDS011;64435;47.424;19.400;2022-10-18T00:00:47;21.03;;;11.47;;
75732;SDS011;64435;47.424;19.400;2022-10-18T00:03:13;20.15;;;11.70;;
75732;SDS011;64435;47.424;19.400;2022-10-18T00:05:38;26.30;;;11.87;;
75732;SDS011;64435;47.424;19.400;2022-10-18T00:08:03;22.17;;;11.03;;
75732;SDS011;64435;47.424;19.400;2022-10-18T00:10:29;27.93;;;12.27;;
75732;SDS011;64435;47.424;19.400;2022-10-18T00:12:54;19.73;;;11.80;;
75732;SDS011;64435;47.424;19.400;2022-10-18T00:15:20;21.37;;;11.33;;
75732;SDS011;64435;47.424;19.400;2022-10-18T00:17:45;20.97;;;11.10;;
75732;SDS011;64435;47.424;19.400;2022-10-18T00:20:11;20.90;;;11.33;;
75732;SDS011;64435;47.424;19.400;2022-10-18T00:22:37;25.42;;;12.88;;
75732;SDS011;64435;47.424;19.400;2022-10-18T00:25:04;22.47;;;11.80;;
75732;SDS011;64435;47.424;19.400;2022-10-18T00:27:31;21.40;;;12.30;;
75732;SDS011;64435;47.424;19.400;2022-10-18T00:29:57;24.27;;;12.48;;
75732;SDS011;64435;47.424;19.400;2022-10-18T00:32:23;23.08;;;12.50;;
75732;SDS011;64435;47.424;19.400;2022-10-18T00:34:49;24.23;;;12.07;;
75732;SDS011;64435;47.424;19.400;2022-10-18T00:37:14;21.55;;;12.18;;
75732;SDS011;64435;47.424;19.400;2022-10-18T00:39:40;28.10;;;12.93;;
75732;SDS011;64435;47.424;19.400;2022-10-18T00:42:05;21.70;;;12.50;;
75732;SDS011;64435;47.424;19.400;2022-10-18T00:47:00;20.87;;;12.30;;
75732;SDS011;64435;47.424;19.400;2022-10-18T00:49:31;25.48;;;12.63;;
75732;SDS011;64435;47.424;19.400;2022-10-18T00:52:08;27.15;;;13.77;;
75732;SDS011;64435;47.424;19.400;2022-10-18T00:54:37;23.42;;;12.60;;
75732;SDS011;64435;47.424;19.400;2022-10-18T00:57:04;23.67;;;13.50;;
75732;SDS011;64435;47.424;19.400;2022-10-18T00:59:30;22.77;;;12.40;;
75732;SDS011;64435;47.424;19.400;2022-10-18T01:01:56;24.08;;;12.43;;
75732;SDS011;64435;47.424;19.400;2022-10-18T01:04:21;25.90;;;12.00;;
75732;SDS011;64435;47.424;19.400;2022-10-18T01:07:00;22.97;;;11.60;;
75732;SDS011;64435;47.424;19.400;2022-10-18T01:09:48;23.05;;;12.37;;
75732;SDS011;64435;47.424;19.400;2022-10-18T01:22:49;22.83;;;12.80;;
75732;SDS011;64435;47.424;19.400;2022-10-18T01:30:50;24.48;;;12.02;;
75732;SDS011;64435;47.424;19.400;2022-10-18T01:35:48;29.25;;;12.90;;
75732;SDS011;64435;47.424;19.400;2022-10-18T01:38:27;22.75;;;12.60;;
75732;SDS011;64435;47.424;19.400;2022-10-18T01:40:54;25.42;;;13.38;;
75732;SDS011;64435;47.424;19.400;2022-10-18T01:43:20;30.48;;;13.18;;
75732;SDS011;64435;47.424;19.400;2022-10-18T01:45:47;24.10;;;13.07;;
75732;SDS011;64435;47.424;19.400;2022-10-18T01:48:13;26.35;;;13.45;;
75732;SDS011;64435;47.424;19.400;2022-10-18T01:50:38;24.17;;;14.00;;
75732;SDS011;64435;47.424;19.400;2022-10-18T01:53:04;25.17;;;13.07;;
75732;SDS011;64435;47.424;19.400;2022-10-18T01:55:37;33.90;;;12.80;;
75732;SDS011;64435;47.424;19.400;2022-10-18T02:00:40;26.73;;;13.80;;
75732;SDS011;64435;47.424;19.400;2022-10-18T02:11:02;28.62;;;14.20;;
75732;SDS011;64435;47.424;19.400;2022-10-18T02:13:29;25.13;;;12.87;;
75732;SDS011;64435;47.424;19.400;2022-10-18T02:16:11;25.35;;;13.65;;
75732;SDS011;64435;47.424;19.400;2022-10-18T02:18:41;26.73;;;13.27;;
75732;SDS011;64435;47.424;19.400;2022-10-18T02:21:11;25.95;;;13.48;;
75732;SDS011;64435;47.424;19.400;2022-10-18T02:23:38;26.23;;;14.52;;
75732;SDS011;64435;47.424;19.400;2022-10-18T02:26:04;27.93;;;13.70;;
75732;SDS011;64435;47.424;19.400;2022-10-18T02:28:30;24.23;;;13.98;;
75732;SDS011;64435;47.424;19.400;2022-10-18T02:36:54;25.12;;;12.85;;
75732;SDS011;64435;47.424;19.400;2022-10-18T02:39:26;28.00;;;14.13;;
75732;SDS011;64435;47.424;19.400;2022-10-18T02:42:00;28.62;;;14.05;;
75732;SDS011;64435;47.424;19.400;2022-10-18T02:44:30;29.87;;;14.53;;
75732;SDS011;64435;47.424;19.400;2022-10-18T02:46:57;29.98;;;13.98;;
75732;SDS011;64435;47.424;19.400;2022-10-18T02:49:22;28.63;;;14.67;;
75732;SDS011;64435;47.424;19.400;2022-10-18T02:51:47;27.52;;;14.70;;
75732;SDS011;64435;47.424;19.400;2022-10-18T02:54:13;27.27;;;14.13;;
75732;SDS011;64435;47.424;19.400;2022-10-18T02:56:38;24.37;;;13.93;;
75732;SDS011;64435;47.424;19.400;2022-10-18T02:59:04;27.20;;;14.07;;
75732;SDS011;64435;47.424;19.400;2022-10-18T03:01:31;25.88;;;13.55;;
75732;SDS011;64435;47.424;19.400;2022-10-18T03:03:57;27.08;;;14.68;;
75732;SDS011;64435;47.424;19.400;2022-10-18T03:06:22;26.53;;;13.40;;
75732;SDS011;64435;47.424;19.400;2022-10-18T03:08:48;25.13;;;13.57;;
75732;SDS011;64435;47.424;19.400;2022-10-18T03:11:13;24.95;;;14.65;;
75732;SDS011;64435;47.424;19.400;2022-10-18T03:13:39;29.20;;;14.90;;
75732;SDS011;64435;47.424;19.400;2022-10-18T03:16:04;26.43;;;14.37;;
75732;SDS011;64435;47.424;19.400;2022-10-18T03:18:30;34.20;;;13.77;;
75732;SDS011;64435;47.424;19.400;2022-10-18T03:20:55;30.43;;;14.40;;
75732;SDS011;64435;47.424;19.400;2022-10-18T03:23:20;26.15;;;13.68;;
75732;SDS011;64435;47.424;19.400;2022-10-18T03:25:46;27.60;;;14.00;;
75732;SDS011;64435;47.424;19.400;2022-10-18T03:28:11;27.50;;;14.00;;
75732;SDS011;64435;47.424;19.400;2022-10-18T03:30:37;26.87;;;13.70;;
75732;SDS011;64435;47.424;19.400;2022-10-18T03:33:05;26.93;;;14.27;;
75732;SDS011;64435;47.424;19.400;2022-10-18T03:35:30;27.95;;;13.88;;
75732;SDS011;64435;47.424;19.400;2022-10-18T03:37:56;28.30;;;13.70;;
75732;SDS011;64435;47.424;19.400;2022-10-18T03:40:21;28.90;;;14.53;;
75732;SDS011;64435;47.424;19.400;2022-10-18T03:42:47;29.35;;;15.20;;
75732;SDS011;64435;47.424;19.400;2022-10-18T03:45:12;24.53;;;13.93;;
75732;SDS011;64435;47.424;19.400;2022-10-18T03:47:38;30.60;;;14.27;;
75732;SDS011;64435;47.424;19.400;2022-10-18T03:50:03;26.03;;;13.90;;
75732;SDS011;64435;47.424;19.400;2022-10-18T03:52:29;27.27;;;14.18;;
75732;SDS011;64435;47.424;19.400;2022-10-18T03:54:54;26.83;;;14.17;;
75732;SDS011;64435;47.424;19.400;2022-10-18T03:57:20;32.27;;;15.13;;
75732;SDS011;64435;47.424;19.400;2022-10-18T03:59:45;28.20;;;14.47;;
75732;SDS011;64435;47.424;19.400;2022-10-18T04:02:12;28.33;;;14.93;;
75732;SDS011;64435;47.424;19.400;2022-10-18T04:04:38;27.05;;;13.73;;
75732;SDS011;64435;47.424;19.400;2022-10-18T04:07:03;27.57;;;14.00;;
75732;SDS011;64435;47.424;19.400;2022-10-18T04:09:29;26.17;;;13.50;;
75732;SDS011;64435;47.424;19.400;2022-10-18T04:11:54;26.43;;;13.80;;
75732;SDS011;64435;47.424;19.400;2022-10-18T04:14:20;29.20;;;14.57;;
75732;SDS011;64435;47.424;19.400;2022-10-18T04:16:46;27.50;;;14.35;;
75732;SDS011;64435;47.424;19.400;2022-10-18T04:19:11;27.87;;;14.43;;
75732;SDS011;64435;47.424;19.400;2022-10-18T04:21:37;28.60;;;14.05;;
75732;SDS011;64435;47.424;19.400;2022-10-18T04:24:02;28.27;;;14.67;;
75732;SDS011;64435;47.424;19.400;2022-10-18T04:26:28;28.90;;;15.03;;
75732;SDS011;64435;47.424;19.400;2022-10-18T04:28:53;25.98;;;14.00;;
75732;SDS011;64435;47.424;19.400;2022-10-18T04:31:19;29.83;;;15.07;;
75732;SDS011;64435;47.424;19.400;2022-10-18T04:33:44;26.37;;;15.50;;
75732;SDS011;64435;47.424;19.400;2022-10-18T04:36:10;25.67;;;14.27;;
75732;SDS011;64435;47.424;19.400;2022-10-18T04:38:35;29.70;;;15.50;;
75732;SDS011;64435;47.424;19.400;2022-10-18T04:41:00;26.93;;;14.20;;
75732;SDS011;64435;47.424;19.400;2022-10-18T04:43:26;28.30;;;15.30;;
75732;SDS011;64435;47.424;19.400;2022-10-18T04:45:54;26.67;;;14.43;;
75732;SDS011;64435;47.424;19.400;2022-10-18T04:48:19;27.87;;;14.13;;
75732;SDS011;64435;47.424;19.400;2022-10-18T04:50:48;27.73;;;13.73;;
75732;SDS011;64435;47.424;19.400;2022-10-18T04:53:15;29.35;;;14.15;;
75732;SDS011;64435;47.424;19.400;2022-10-18T04:55:47;30.17;;;13.95;;
75732;SDS011;64435;47.424;19.400;2022-10-18T04:58:14;29.17;;;15.30;;
75732;SDS011;64435;47.424;19.400;2022-10-18T05:00:40;33.43;;;15.47;;
75732;SDS011;64435;47.424;19.400;2022-10-18T05:03:06;30.27;;;15.77;;
75732;SDS011;64435;47.424;19.400;2022-10-18T05:05:31;29.85;;;13.75;;
75732;SDS011;64435;47.424;19.400;2022-10-18T05:07:57;27.07;;;13.90;;
75732;SDS011;64435;47.424;19.400;2022-10-18T05:10:22;30.97;;;14.53;;
75732;SDS011;64435;47.424;19.400;2022-10-18T05:12:47;25.57;;;13.50;;
75732;SDS011;64435;47.424;19.400;2022-10-18T05:15:13;29.83;;;13.75;;
75732;SDS011;64435;47.424;19.400;2022-10-18T05:17:38;26.43;;;13.93;;
75732;SDS011;64435;47.424;19.400;2022-10-18T05:20:04;28.60;;;13.37;;
75732;SDS011;64435;47.424;19.400;2022-10-18T05:22:30;32.50;;;14.97;;
75732;SDS011;64435;47.424;19.400;2022-10-18T05:24:55;28.90;;;13.33;;
75732;SDS011;64435;47.424;19.400;2022-10-18T05:27:20;27.93;;;14.10;;
75732;SDS011;64435;47.424;19.400;2022-10-18T05:29:46;32.40;;;14.37;;
75732;SDS011;64435;47.424;19.400;2022-10-18T05:32:11;27.53;;;14.33;;
75732;SDS011;64435;47.424;19.400;2022-10-18T05:34:37;28.53;;;14.07;;
75732;SDS011;64435;47.424;19.400;2022-10-18T05:37:02;27.80;;;14.20;;
75732;SDS011;64435;47.424;19.400;2022-10-18T05:39:27;28.33;;;14.23;;
75732;SDS011;64435;47.424;19.400;2022-10-18T05:41:53;26.23;;;14.00;;
75732;SDS011;64435;47.424;19.400;2022-10-18T05:44:18;33.37;;;14.93;;
75732;SDS011;64435;47.424;19.400;2022-10-18T05:46:44;27.70;;;14.30;;
75732;SDS011;64435;47.424;19.400;2022-10-18T05:49:12;28.20;;;13.73;;
75732;SDS011;64435;47.424;19.400;2022-10-18T05:51:38;29.43;;;14.87;;
75732;SDS011;64435;47.424;19.400;2022-10-18T05:54:03;25.42;;;13.90;;
75732;SDS011;64435;47.424;19.400;2022-10-18T05:56:28;26.20;;;13.90;;
75732;SDS011;64435;47.424;19.400;2022-10-18T05:58:54;28.77;;;14.63;;
75732;SDS011;64435;47.424;19.400;2022-10-18T06:01:19;26.87;;;14.23;;
75732;SDS011;64435;47.424;19.400;2022-10-18T06:03:45;26.27;;;14.05;;
75732;SDS011;64435;47.424;19.400;2022-10-18T06:06:11;27.40;;;13.80;;
75732;SDS011;64435;47.424;19.400;2022-10-18T06:08:37;34.40;;;14.80;;
75732;SDS011;64435;47.424;19.400;2022-10-18T06:11:13;31.62;;;15.20;;
75732;SDS011;64435;47.424;19.400;2022-10-18T06:13:41;27.23;;;14.05;;
75732;SDS011;64435;47.424;19.400;2022-10-18T06:16:11;26.73;;;14.20;;
75732;SDS011;64435;47.424;19.400;2022-10-18T06:18:36;28.17;;;13.85;;
75732;SDS011;64435;47.424;19.400;2022-10-18T06:21:02;29.90;;;14.50;;
75732;SDS011;64435;47.424;19.400;2022-10-18T06:23:28;27.07;;;14.30;;
75732;SDS011;64435;47.424;19.400;2022-10-18T06:25:57;27.53;;;14.10;;
75732;SDS011;64435;47.424;19.400;2022-10-18T06:28:23;28.73;;;13.77;;
75732;SDS011;64435;47.424;19.400;2022-10-18T06:30:48;29.70;;;15.00;;
75732;SDS011;64435;47.424;19.400;2022-10-18T06:33:13;26.57;;;14.13;;
75732;SDS011;64435;47.424;19.400;2022-10-18T06:35:39;27.20;;;13.62;;
75732;SDS011;64435;47.424;19.400;2022-10-18T06:38:04;25.80;;;13.83;;
75732;SDS011;64435;47.424;19.400;2022-10-18T06:40:30;27.63;;;14.23;;
75732;SDS011;64435;47.424;19.400;2022-10-18T06:43:02;25.33;;;13.48;;
75732;SDS011;64435;47.424;19.400;2022-10-18T06:45:30;23.02;;;12.57;;
75732;SDS011;64435;47.424;19.400;2022-10-18T06:47:56;27.00;;;14.52;;
75732;SDS011;64435;47.424;19.400;2022-10-18T06:50:22;31.03;;;13.97;;
75732;SDS011;64435;47.424;19.400;2022-10-18T06:52:48;23.08;;;14.70;;
75732;SDS011;64435;47.424;19.400;2022-10-18T06:55:15;29.87;;;16.40;;
75732;SDS011;64435;47.424;19.400;2022-10-18T06:57:40;26.07;;;14.17;;
75732;SDS011;64435;47.424;19.400;2022-10-18T07:00:06;28.23;;;14.17;;
75732;SDS011;64435;47.424;19.400;2022-10-18T07:02:32;24.37;;;14.05;;
75732;SDS011;64435;47.424;19.400;2022-10-18T07:04:57;25.63;;;13.03;;
75732;SDS011;64435;47.424;19.400;2022-10-18T07:07:22;27.03;;;13.33;;
75732;SDS011;64435;47.424;19.400;2022-10-18T07:09:48;24.50;;;13.53;;
75732;SDS011;64435;47.424;19.400;2022-10-18T07:12:13;24.27;;;13.23;;
75732;SDS011;64435;47.424;19.400;2022-10-18T07:14:41;23.45;;;13.35;;
75732;SDS011;64435;47.424;19.400;2022-10-18T07:17:07;26.12;;;13.05;;
75732;SDS011;64435;47.424;19.400;2022-10-18T07:19:32;21.63;;;11.73;;
75732;SDS011;64435;47.424;19.400;2022-10-18T07:21:58;23.07;;;12.27;;
75732;SDS011;64435;47.424;19.400;2022-10-18T07:24:23;19.70;;;10.37;;
75732;SDS011;64435;47.424;19.400;2022-10-18T07:26:48;17.52;;;9.98;;
75732;SDS011;64435;47.424;19.400;2022-10-18T07:29:14;17.37;;;9.90;;
75732;SDS011;64435;47.424;19.400;2022-10-18T07:31:40;17.80;;;9.43;;
75732;SDS011;64435;47.424;19.400;2022-10-18T07:34:06;13.57;;;9.13;;
75732;SDS011;64435;47.424;19.400;2022-10-18T07:36:33;17.12;;;9.13;;
75732;SDS011;64435;47.424;19.400;2022-10-18T07:38:58;14.40;;;7.90;;
75732;SDS011;64435;47.424;19.400;2022-10-18T07:41:23;13.37;;;7.60;;
75732;SDS011;64435;47.424;19.400;2022-10-18T07:43:49;14.77;;;7.87;;
75732;SDS011;64435;47.424;19.400;2022-10-18T07:46:16;14.75;;;8.13;;
75732;SDS011;64435;47.424;19.400;2022-10-18T07:48:42;13.90;;;7.82;;
75732;SDS011;64435;47.424;19.400;2022-10-18T07:51:09;14.40;;;7.85;;
75732;SDS011;64435;47.424;19.400;2022-10-18T07:53:34;13.40;;;8.23;;
75732;SDS011;64435;47.424;19.400;2022-10-18T07:56:01;14.27;;;7.47;;
75732;SDS011;64435;47.424;19.400;2022-10-18T07:58:28;12.73;;;7.40;;
75732;SDS011;64435;47.424;19.400;2022-10-18T08:00:54;12.80;;;7.70;;
75732;SDS011;64435;47.424;19.400;2022-10-18T08:03:20;19.35;;;8.82;;
75732;SDS011;64435;47.424;19.400;2022-10-18T08:05:52;13.03;;;7.73;;
75732;SDS011;64435;47.424;19.400;2022-10-18T08:08:19;12.63;;;7.18;;
75732;SDS011;64435;47.424;19.400;2022-10-18T08:10:45;18.50;;;7.95;;
75732;SDS011;64435;47.424;19.400;2022-10-18T08:13:10;13.30;;;7.37;;
75732;SDS011;64435;47.424;19.400;2022-10-18T08:15:35;13.43;;;7.53;;
75732;SDS011;64435;47.424;19.400;2022-10-18T08:18:01;11.30;;;6.73;;
75732;SDS011;64435;47.424;19.400;2022-10-18T08:20:26;14.57;;;6.63;;
75732;SDS011;64435;47.424;19.400;2022-10-18T08:22:52;12.10;;;6.90;;
75732;SDS011;64435;47.424;19.400;2022-10-18T08:25:17;13.57;;;6.50;;
75732;SDS011;64435;47.424;19.400;2022-10-18T08:27:43;15.50;;;7.20;;
75732;SDS011;64435;47.424;19.400;2022-10-18T08:30:09;12.77;;;6.80;;
75732;SDS011;64435;47.424;19.400;2022-10-18T08:32:34;14.80;;;7.50;;
75732;SDS011;64435;47.424;19.400;2022-10-18T08:35:00;12.23;;;6.70;;
75732;SDS011;64435;47.424;19.400;2022-10-18T08:37:25;11.77;;;7.07;;
75732;SDS011;64435;47.424;19.400;2022-10-18T08:39:51;12.88;;;7.10;;
75732;SDS011;64435;47.424;19.400;2022-10-18T08:42:22;12.93;;;7.13;;
75732;SDS011;64435;47.424;19.400;2022-10-18T08:45:07;13.88;;;6.95;;
75732;SDS011;64435;47.424;19.400;2022-10-18T08:47:38;12.10;;;7.28;;
75732;SDS011;64435;47.424;19.400;2022-10-18T08:50:11;13.68;;;7.95;;
75732;SDS011;64435;47.424;19.400;2022-10-18T08:52:49;12.73;;;7.33;;
75732;SDS011;64435;47.424;19.400;2022-10-18T08:57:53;11.88;;;6.62;;
75732;SDS011;64435;47.424;19.400;2022-10-18T09:00:22;10.48;;;6.50;;
75732;SDS011;64435;47.424;19.400;2022-10-18T09:06:08;11.63;;;6.47;;
75732;SDS011;64435;47.424;19.400;2022-10-18T09:35:41;12.85;;;7.53;;
75732;SDS011;64435;47.424;19.400;2022-10-18T09:38:09;12.57;;;7.00;;
75732;SDS011;64435;47.424;19.400;2022-10-18T09:40:36;12.27;;;6.68;;
75732;SDS011;64435;47.424;19.400;2022-10-18T09:43:19;25.33;;;11.45;;
75732;SDS011;64435;47.424;19.400;2022-10-18T09:46:05;13.32;;;7.60;;
75732;SDS011;64435;47.424;19.400;2022-10-18T09:51:23;12.45;;;7.30;;
75732;SDS011;64435;47.424;19.400;2022-10-18T09:56:37;14.38;;;7.95;;
75732;SDS011;64435;47.424;19.400;2022-10-18T09:59:06;13.93;;;6.37;;
75732;SDS011;64435;47.424;19.400;2022-10-18T10:01:44;10.57;;;5.90;;
75732;SDS011;64435;47.424;19.400;2022-10-18T10:04:10;13.10;;;5.97;;
75732;SDS011;64435;47.424;19.400;2022-10-18T10:06:35;12.95;;;6.68;;
75732;SDS011;64435;47.424;19.400;2022-10-18T10:09:07;11.50;;;7.10;;
75732;SDS011;64435;47.424;19.400;2022-10-18T10:11:42;11.20;;;6.30;;
75732;SDS011;64435;47.424;19.400;2022-10-18T10:16:55;12.68;;;7.37;;
75732;SDS011;64435;47.424;19.400;2022-10-18T10:22:37;12.20;;;5.95;;
75732;SDS011;64435;47.424;19.400;2022-10-18T10:25:03;9.87;;;6.30;;
75732;SDS011;64435;47.424;19.400;2022-10-18T10:30:20;29.80;;;14.18;;
75732;SDS011;64435;47.424;19.400;2022-10-18T10:32:47;12.85;;;7.55;;
75732;SDS011;64435;47.424;19.400;2022-10-18T10:35:23;11.75;;;7.40;;
75732;SDS011;64435;47.424;19.400;2022-10-18T10:37:52;11.97;;;6.77;;
75732;SDS011;64435;47.424;19.400;2022-10-18T10:40:27;13.32;;;7.15;;
75732;SDS011;64435;47.424;19.400;2022-10-18T10:43:04;10.13;;;6.82;;
75732;SDS011;64435;47.424;19.400;2022-10-18T10:45:51;9.93;;;6.50;;
75732;SDS011;64435;47.424;19.400;2022-10-18T10:48:22;12.70;;;8.43;;
75732;SDS011;64435;47.424;19.400;2022-10-18T10:50:52;10.87;;;6.97;;
75732;SDS011;64435;47.424;19.400;2022-10-18T10:55:55;12.00;;;9.18;;
75732;SDS011;64435;47.424;19.400;2022-10-18T10:58:22;15.18;;;8.23;;
75732;SDS011;64435;47.424;19.400;2022-10-18T11:00:47;14.33;;;8.30;;
75732;SDS011;64435;47.424;19.400;2022-10-18T11:03:14;12.32;;;8.15;;
75732;SDS011;64435;47.424;19.400;2022-10-18T11:05:42;8.83;;;7.20;;
75732;SDS011;64435;47.424;19.400;2022-10-18T11:08:10;9.90;;;6.47;;
75732;SDS011;64435;47.424;19.400;2022-10-18T11:10:47;10.15;;;6.55;;
75732;SDS011;64435;47.424;19.400;2022-10-18T11:16:16;12.15;;;8.00;;
75732;SDS011;64435;47.424;19.400;2022-10-18T11:18:47;14.73;;;8.60;;
75732;SDS011;64435;47.424;19.400;2022-10-18T11:21:17;10.73;;;7.00;;
75732;SDS011;64435;47.424;19.400;2022-10-18T11:23:47;15.35;;;7.20;;
75732;SDS011;64435;47.424;19.400;2022-10-18T11:31:20;12.15;;;5.68;;
75732;SDS011;64435;47.424;19.400;2022-10-18T11:33:55;8.45;;;6.05;;
75732;SDS011;64435;47.424;19.400;2022-10-18T11:36:34;7.70;;;5.50;;
75732;SDS011;64435;47.424;19.400;2022-10-18T11:39:08;9.93;;;5.78;;
75732;SDS011;64435;47.424;19.400;2022-10-18T11:41:47;8.18;;;5.30;;
75732;SDS011;64435;47.424;19.400;2022-10-18T11:44:21;9.00;;;5.37;;
75732;SDS011;64435;47.424;19.400;2022-10-18T11:47:02;8.93;;;5.37;;
75732;SDS011;64435;47.424;19.400;2022-10-18T12:06:24;8.60;;;4.85;;
75732;SDS011;64435;47.424;19.400;2022-10-18T12:08:56;7.18;;;5.65;;
75732;SDS011;64435;47.424;19.400;2022-10-18T12:11:27;7.67;;;5.07;;
75732;SDS011;64435;47.424;19.400;2022-10-18T12:13:56;7.47;;;5.00;;
75732;SDS011;64435;47.424;19.400;2022-10-18T12:16:27;8.80;;;5.80;;
75732;SDS011;64435;47.424;19.400;2022-10-18T12:18:59;7.47;;;5.28;;
75732;SDS011;64435;47.424;19.400;2022-10-18T12:21:28;13.90;;;6.70;;
75732;SDS011;64435;47.424;19.400;2022-10-18T12:24:10;10.17;;;5.77;;
75732;SDS011;64435;47.424;19.400;2022-10-18T12:26:37;8.23;;;5.47;;
75732;SDS011;64435;47.424;19.400;2022-10-18T12:31:56;9.20;;;5.60;;
75732;SDS011;64435;47.424;19.400;2022-10-18T12:39:58;8.48;;;5.70;;
75732;SDS011;64435;47.424;19.400;2022-10-18T12:42:43;8.43;;;4.95;;
75732;SDS011;64435;47.424;19.400;2022-10-18T12:48:06;8.20;;;5.25;;
75732;SDS011;64435;47.424;19.400;2022-10-18T12:53:04;7.75;;;5.80;;
75732;SDS011;64435;47.424;19.400;2022-10-18T12:55:32;8.52;;;5.75;;
75732;SDS011;64435;47.424;19.400;2022-10-18T12:58:04;8.00;;;5.43;;
75732;SDS011;64435;47.424;19.400;2022-10-18T13:16:35;7.93;;;4.25;;
75732;SDS011;64435;47.424;19.400;2022-10-18T13:24:44;9.57;;;4.10;;
75732;SDS011;64435;47.424;19.400;2022-10-18T13:33:03;8.07;;;4.53;;
75732;SDS011;64435;47.424;19.400;2022-10-18T13:36:04;8.50;;;4.40;;
75732;SDS011;64435;47.424;19.400;2022-10-18T13:41:23;6.05;;;3.80;;
75732;SDS011;64435;47.424;19.400;2022-10-18T13:51:47;7.07;;;3.60;;
75732;SDS011;64435;47.424;19.400;2022-10-18T13:59:31;7.75;;;4.05;;
75732;SDS011;64435;47.424;19.400;2022-10-18T14:05:05;6.12;;;4.10;;
75732;SDS011;64435;47.424;19.400;2022-10-18T14:07:35;6.30;;;3.67;;
75732;SDS011;64435;47.424;19.400;2022-10-18T14:10:01;6.93;;;3.55;;
75732;SDS011;64435;47.424;19.400;2022-10-18T14:15:16;6.78;;;4.00;;
75732;SDS011;64435;47.424;19.400;2022-10-18T14:17:44;8.97;;;3.80;;
75732;SDS011;64435;47.424;19.400;2022-10-18T14:30:33;7.60;;;4.20;;
75732;SDS011;64435;47.424;19.400;2022-10-18T14:33:02;6.90;;;4.50;;
75732;SDS011;64435;47.424;19.400;2022-10-18T14:35:31;8.40;;;3.80;;
75732;SDS011;64435;47.424;19.400;2022-10-18T14:37:59;9.77;;;3.92;;
75732;SDS011;64435;47.424;19.400;2022-10-18T14:40:29;6.75;;;4.22;;
75732;SDS011;64435;47.424;19.400;2022-10-18T14:43:05;8.07;;;3.75;;
75732;SDS011;64435;47.424;19.400;2022-10-18T14:45:35;10.88;;;4.10;;
75732;SDS011;64435;47.424;19.400;2022-10-18T14:48:13;10.80;;;3.90;;
75732;SDS011;64435;47.424;19.400;2022-10-18T14:50:40;12.02;;;3.92;;
75732;SDS011;64435;47.424;19.400;2022-10-18T14:53:18;7.75;;;4.20;;
75732;SDS011;64435;47.424;19.400;2022-10-18T14:55:55;7.37;;;3.47;;
75732;SDS011;64435;47.424;19.400;2022-10-18T14:58:24;10.07;;;3.87;;
75732;SDS011;64435;47.424;19.400;2022-10-18T15:00:50;11.12;;;4.18;;
75732;SDS011;64435;47.424;19.400;2022-10-18T15:03:16;9.53;;;4.40;;
75732;SDS011;64435;47.424;19.400;2022-10-18T15:05:58;10.15;;;4.10;;
75732;SDS011;64435;47.424;19.400;2022-10-18T15:08:26;10.85;;;3.97;;
75732;SDS011;64435;47.424;19.400;2022-10-18T15:10:54;11.15;;;5.57;;
75732;SDS011;64435;47.424;19.400;2022-10-18T15:13:20;10.13;;;5.27;;
75732;SDS011;64435;47.424;19.400;2022-10-18T15:15:47;7.47;;;5.22;;
75732;SDS011;64435;47.424;19.400;2022-10-18T15:18:18;10.35;;;4.82;;
75732;SDS011;64435;47.424;19.400;2022-10-18T15:20:45;11.48;;;4.97;;
75732;SDS011;64435;47.424;19.400;2022-10-18T15:23:51;12.35;;;5.65;;
75732;SDS011;64435;47.424;19.400;2022-10-18T15:26:22;14.17;;;5.77;;
75732;SDS011;64435;47.424;19.400;2022-10-18T15:28:50;10.10;;;5.28;;
75732;SDS011;64435;47.424;19.400;2022-10-18T15:33:46;11.23;;;5.70;;
75732;SDS011;64435;47.424;19.400;2022-10-18T15:36:19;10.43;;;5.60;;
75732;SDS011;64435;47.424;19.400;2022-10-18T15:38:52;13.15;;;5.68;;
75732;SDS011;64435;47.424;19.400;2022-10-18T15:44:07;11.50;;;5.18;;
75732;SDS011;64435;47.424;19.400;2022-10-18T15:47:08;10.07;;;4.85;;
75732;SDS011;64435;47.424;19.400;2022-10-18T15:54:56;14.10;;;5.87;;
75732;SDS011;64435;47.424;19.400;2022-10-18T15:57:22;17.20;;;6.45;;
75732;SDS011;64435;47.424;19.400;2022-10-18T16:00:06;16.35;;;6.45;;
75732;SDS011;64435;47.424;19.400;2022-10-18T16:02:39;14.93;;;6.35;;
75732;SDS011;64435;47.424;19.400;2022-10-18T16:05:04;16.83;;;6.60;;
75732;SDS011;64435;47.424;19.400;2022-10-18T16:07:30;19.93;;;7.67;;
75732;SDS011;64435;47.424;19.400;2022-10-18T16:09:55;17.50;;;7.45;;
75732;SDS011;64435;47.424;19.400;2022-10-18T16:12:20;20.20;;;7.83;;
75732;SDS011;64435;47.424;19.400;2022-10-18T16:14:46;17.27;;;8.17;;
75732;SDS011;64435;47.424;19.400;2022-10-18T16:17:11;21.90;;;10.70;;
75732;SDS011;64435;47.424;19.400;2022-10-18T16:19:44;26.70;;;11.93;;
75732;SDS011;64435;47.424;19.400;2022-10-18T16:22:10;25.40;;;12.50;;
75732;SDS011;64435;47.424;19.400;2022-10-18T16:24:38;27.85;;;12.90;;
75732;SDS011;64435;47.424;19.400;2022-10-18T16:27:04;27.27;;;12.10;;
75732;SDS011;64435;47.424;19.400;2022-10-18T16:29:29;26.87;;;12.43;;
75732;SDS011;64435;47.424;19.400;2022-10-18T16:31:56;26.08;;;13.77;;
75732;SDS011;64435;47.424;19.400;2022-10-18T16:34:22;31.23;;;14.37;;
75732;SDS011;64435;47.424;19.400;2022-10-18T16:36:50;37.35;;;15.77;;
75732;SDS011;64435;47.424;19.400;2022-10-18T16:39:16;40.97;;;20.87;;
75732;SDS011;64435;47.424;19.400;2022-10-18T16:41:43;40.97;;;19.17;;
75732;SDS011;64435;47.424;19.400;2022-10-18T16:44:09;48.97;;;23.35;;
75732;SDS011;64435;47.424;19.400;2022-10-18T16:46:35;32.00;;;18.30;;
75732;SDS011;64435;47.424;19.400;2022-10-18T16:49:01;37.63;;;21.30;;
75732;SDS011;64435;47.424;19.400;2022-10-18T16:51:26;34.87;;;15.60;;
75732;SDS011;64435;47.424;19.400;2022-10-18T16:53:52;36.03;;;15.02;;
75732;SDS011;64435;47.424;19.400;2022-10-18T16:56:28;28.50;;;14.87;;
75732;SDS011;64435;47.424;19.400;2022-10-18T16:58:55;33.13;;;15.80;;
75732;SDS011;64435;47.424;19.400;2022-10-18T17:01:21;33.13;;;16.65;;
75732;SDS011;64435;47.424;19.400;2022-10-18T17:03:47;26.52;;;12.52;;
75732;SDS011;64435;47.424;19.400;2022-10-18T17:06:18;22.98;;;11.68;;
75732;SDS011;64435;47.424;19.400;2022-10-18T17:08:52;25.13;;;12.77;;
75732;SDS011;64435;47.424;19.400;2022-10-18T17:11:18;25.92;;;12.10;;
75732;SDS011;64435;47.424;19.400;2022-10-18T17:13:45;27.95;;;13.05;;
75732;SDS011;64435;47.424;19.400;2022-10-18T17:16:21;25.58;;;12.68;;
75732;SDS011;64435;47.424;19.400;2022-10-18T17:18:47;27.77;;;14.87;;
75732;SDS011;64435;47.424;19.400;2022-10-18T17:21:12;30.17;;;16.77;;
75732;SDS011;64435;47.424;19.400;2022-10-18T17:23:38;38.40;;;21.17;;
75732;SDS011;64435;47.424;19.400;2022-10-18T17:26:03;39.73;;;21.67;;
75732;SDS011;64435;47.424;19.400;2022-10-18T17:28:29;37.70;;;18.45;;
75732;SDS011;64435;47.424;19.400;2022-10-18T17:30:54;34.30;;;19.60;;
75732;SDS011;64435;47.424;19.400;2022-10-18T17:33:20;37.43;;;20.20;;
75732;SDS011;64435;47.424;19.400;2022-10-18T17:35:47;43.75;;;19.50;;
75732;SDS011;64435;47.424;19.400;2022-10-18T17:38:13;34.55;;;16.48;;